ES-0050 weather

Aeródromo de Villaconejos
Villaconejos, Madrid, Spain

Public forecast

Using degrees Celsius for public forecast. Weather courtesy of forecast.io.

Closest aviation weather report (METAR) to Aeródromo de Villaconejos

Closest report is Getafe Air Base, 15.4 nm (28.6 km) NW. Retrieved 2019/10/22 07:00 UTC (13 minutes ago):

LEGT 220700Z 03009KT CAVOK 10/06 Q1015

Closest aviation forecast (TAF) to Aeródromo de Villaconejos

Forecast is more than 12 hours old.

Closest forecast is Getafe Air Base, 15.4 nm (28.6 km) NW. Retrieved 2018/03/28 12:33 UTC (2 years ago):

TAF LEGT 281100Z 2812/2824 24010KT CAVOK PROB40 TEMPO 2814/2818 27015G25KT TEMPO 2820/2824 28008KT